sensor_id;sensor_type;location;lat;lon;timestamp;P1;durP1;ratioP1;P2;durP2;ratioP2
85622;SDS011;76049;43.076;25.632;2024-03-23T00:52:25;12.30;;;9.00;;
85622;SDS011;76049;43.076;25.632;2024-03-23T00:57:34;10.80;;;4.40;;
85622;SDS011;76049;43.076;25.632;2024-03-23T01:02:41;9.30;;;4.60;;
85622;SDS011;76049;43.076;25.632;2024-03-23T01:07:49;10.10;;;4.50;;
85622;SDS011;76049;43.076;25.632;2024-03-23T01:12:56;8.50;;;5.80;;
85622;SDS011;76049;43.076;25.632;2024-03-23T01:18:04;9.30;;;5.30;;
85622;SDS011;76049;43.076;25.632;2024-03-23T01:23:30;9.10;;;4.10;;
85622;SDS011;76049;43.076;25.632;2024-03-23T01:28:37;10.50;;;4.70;;
85622;SDS011;76049;43.076;25.632;2024-03-23T01:33:44;8.50;;;6.10;;
85622;SDS011;76049;43.076;25.632;2024-03-23T01:38:51;10.70;;;5.90;;
85622;SDS011;76049;43.076;25.632;2024-03-23T01:43:58;9.70;;;4.90;;
85622;SDS011;76049;43.076;25.632;2024-03-23T01:49:10;10.20;;;4.20;;
85622;SDS011;76049;43.076;25.632;2024-03-23T01:54:17;9.40;;;6.20;;
85622;SDS011;76049;43.076;25.632;2024-03-23T01:59:25;8.70;;;5.20;;
85622;SDS011;76049;43.076;25.632;2024-03-23T02:04:32;10.30;;;4.70;;
85622;SDS011;76049;43.076;25.632;2024-03-23T02:09:39;14.50;;;5.30;;
85622;SDS011;76049;43.076;25.632;2024-03-23T02:14:46;11.20;;;5.80;;
85622;SDS011;76049;43.076;25.632;2024-03-23T02:19:53;9.90;;;5.70;;
85622;SDS011;76049;43.076;25.632;2024-03-23T02:25:00;11.10;;;5.60;;
85622;SDS011;76049;43.076;25.632;2024-03-23T02:30:08;10.70;;;5.60;;
85622;SDS011;76049;43.076;25.632;2024-03-23T02:35:15;10.30;;;5.40;;
85622;SDS011;76049;43.076;25.632;2024-03-23T02:40:23;11.90;;;5.90;;
85622;SDS011;76049;43.076;25.632;2024-03-23T02:45:30;11.00;;;4.80;;
85622;SDS011;76049;43.076;25.632;2024-03-23T02:50:36;9.20;;;4.30;;
85622;SDS011;76049;43.076;25.632;2024-03-23T02:55:43;10.80;;;5.10;;
85622;SDS011;76049;43.076;25.632;2024-03-23T03:00:51;9.00;;;4.50;;
85622;SDS011;76049;43.076;25.632;2024-03-23T03:05:58;10.20;;;6.10;;
85622;SDS011;76049;43.076;25.632;2024-03-23T03:11:05;10.90;;;8.60;;
85622;SDS011;76049;43.076;25.632;2024-03-23T03:16:12;13.70;;;5.70;;
85622;SDS011;76049;43.076;25.632;2024-03-23T03:21:19;10.20;;;5.40;;
85622;SDS011;76049;43.076;25.632;2024-03-23T03:26:26;10.50;;;5.60;;
85622;SDS011;76049;43.076;25.632;2024-03-23T03:31:33;11.80;;;6.10;;
85622;SDS011;76049;43.076;25.632;2024-03-23T03:36:40;12.60;;;6.40;;
85622;SDS011;76049;43.076;25.632;2024-03-23T03:41:47;10.90;;;4.90;;
85622;SDS011;76049;43.076;25.632;2024-03-23T03:46:54;12.50;;;5.10;;
85622;SDS011;76049;43.076;25.632;2024-03-23T03:52:01;10.90;;;5.20;;
85622;SDS011;76049;43.076;25.632;2024-03-23T03:57:07;9.00;;;4.60;;
85622;SDS011;76049;43.076;25.632;2024-03-23T04:02:14;8.80;;;5.10;;
85622;SDS011;76049;43.076;25.632;2024-03-23T04:07:21;12.30;;;4.60;;
85622;SDS011;76049;43.076;25.632;2024-03-23T04:12:28;10.00;;;6.00;;
85622;SDS011;76049;43.076;25.632;2024-03-23T04:17:34;9.90;;;5.30;;
85622;SDS011;76049;43.076;25.632;2024-03-23T04:22:41;10.00;;;4.40;;
85622;SDS011;76049;43.076;25.632;2024-03-23T04:27:48;9.60;;;4.60;;
85622;SDS011;76049;43.076;25.632;2024-03-23T04:32:55;10.00;;;6.30;;
85622;SDS011;76049;43.076;25.632;2024-03-23T04:38:02;9.80;;;6.70;;
85622;SDS011;76049;43.076;25.632;2024-03-23T04:43:09;10.10;;;5.50;;
85622;SDS011;76049;43.076;25.632;2024-03-23T04:48:16;9.70;;;5.20;;
85622;SDS011;76049;43.076;25.632;2024-03-23T04:53:24;14.10;;;6.60;;
85622;SDS011;76049;43.076;25.632;2024-03-23T04:58:32;11.70;;;5.90;;
85622;SDS011;76049;43.076;25.632;2024-03-23T05:03:39;9.50;;;4.80;;
85622;SDS011;76049;43.076;25.632;2024-03-23T05:08:46;16.00;;;6.00;;
85622;SDS011;76049;43.076;25.632;2024-03-23T05:13:53;10.80;;;5.10;;
85622;SDS011;76049;43.076;25.632;2024-03-23T05:19:00;12.30;;;6.00;;
85622;SDS011;76049;43.076;25.632;2024-03-23T05:24:07;10.10;;;4.40;;
85622;SDS011;76049;43.076;25.632;2024-03-23T05:29:16;10.20;;;4.80;;
85622;SDS011;76049;43.076;25.632;2024-03-23T05:34:22;9.90;;;4.90;;
85622;SDS011;76049;43.076;25.632;2024-03-23T05:39:29;10.70;;;3.60;;
85622;SDS011;76049;43.076;25.632;2024-03-23T05:44:36;13.00;;;5.40;;
85622;SDS011;76049;43.076;25.632;2024-03-23T05:49:43;9.70;;;6.50;;
85622;SDS011;76049;43.076;25.632;2024-03-23T05:54:50;10.60;;;4.40;;
85622;SDS011;76049;43.076;25.632;2024-03-23T05:59:57;10.90;;;4.60;;
85622;SDS011;76049;43.076;25.632;2024-03-23T06:05:04;9.40;;;3.70;;
85622;SDS011;76049;43.076;25.632;2024-03-23T06:10:12;11.80;;;5.50;;
85622;SDS011;76049;43.076;25.632;2024-03-23T06:15:18;8.80;;;4.30;;
85622;SDS011;76049;43.076;25.632;2024-03-23T06:20:26;13.60;;;5.90;;
85622;SDS011;76049;43.076;25.632;2024-03-23T06:25:33;10.30;;;4.80;;
85622;SDS011;76049;43.076;25.632;2024-03-23T06:30:40;9.00;;;4.40;;
85622;SDS011;76049;43.076;25.632;2024-03-23T06:35:50;9.10;;;5.30;;
85622;SDS011;76049;43.076;25.632;2024-03-23T06:40:57;10.20;;;5.70;;
85622;SDS011;76049;43.076;25.632;2024-03-23T06:46:04;11.20;;;5.30;;
85622;SDS011;76049;43.076;25.632;2024-03-23T06:51:11;11.60;;;5.20;;
85622;SDS011;76049;43.076;25.632;2024-03-23T06:56:18;9.90;;;6.10;;
85622;SDS011;76049;43.076;25.632;2024-03-23T07:06:50;9.10;;;4.70;;
85622;SDS011;76049;43.076;25.632;2024-03-23T07:11:57;10.60;;;5.40;;
85622;SDS011;76049;43.076;25.632;2024-03-23T07:17:04;9.20;;;5.60;;
85622;SDS011;76049;43.076;25.632;2024-03-23T07:22:11;9.70;;;4.90;;
85622;SDS011;76049;43.076;25.632;2024-03-23T07:27:19;9.20;;;4.10;;
85622;SDS011;76049;43.076;25.632;2024-03-23T07:32:27;10.00;;;5.10;;
85622;SDS011;76049;43.076;25.632;2024-03-23T07:37:35;10.10;;;5.10;;
85622;SDS011;76049;43.076;25.632;2024-03-23T07:42:42;10.90;;;5.30;;
85622;SDS011;76049;43.076;25.632;2024-03-23T07:47:49;12.30;;;4.70;;
85622;SDS011;76049;43.076;25.632;2024-03-23T07:52:56;9.10;;;4.30;;
85622;SDS011;76049;43.076;25.632;2024-03-23T07:58:03;6.00;;;2.40;;
85622;SDS011;76049;43.076;25.632;2024-03-23T08:03:10;6.60;;;3.10;;
85622;SDS011;76049;43.076;25.632;2024-03-23T08:08:17;8.00;;;3.30;;
85622;SDS011;76049;43.076;25.632;2024-03-23T08:13:24;7.30;;;3.00;;
85622;SDS011;76049;43.076;25.632;2024-03-23T08:18:31;7.40;;;2.40;;
85622;SDS011;76049;43.076;25.632;2024-03-23T08:23:38;5.70;;;2.10;;
85622;SDS011;76049;43.076;25.632;2024-03-23T08:28:45;5.80;;;1.40;;
85622;SDS011;76049;43.076;25.632;2024-03-23T08:33:52;8.50;;;2.60;;
85622;SDS011;76049;43.076;25.632;2024-03-23T08:39:00;3.90;;;1.30;;
85622;SDS011;76049;43.076;25.632;2024-03-23T08:44:07;4.10;;;1.40;;
85622;SDS011;76049;43.076;25.632;2024-03-23T08:49:14;4.10;;;1.30;;
85622;SDS011;76049;43.076;25.632;2024-03-23T08:54:22;3.10;;;0.80;;
85622;SDS011;76049;43.076;25.632;2024-03-23T08:59:31;4.50;;;1.50;;
85622;SDS011;76049;43.076;25.632;2024-03-23T09:04:38;4.20;;;2.50;;
85622;SDS011;76049;43.076;25.632;2024-03-23T09:09:45;4.90;;;1.60;;
85622;SDS011;76049;43.076;25.632;2024-03-23T09:14:52;3.20;;;1.30;;
85622;SDS011;76049;43.076;25.632;2024-03-23T09:19:59;4.10;;;2.10;;
85622;SDS011;76049;43.076;25.632;2024-03-23T09:25:07;3.80;;;1.20;;
85622;SDS011;76049;43.076;25.632;2024-03-23T09:30:15;4.20;;;2.00;;
85622;SDS011;76049;43.076;25.632;2024-03-23T09:35:21;3.30;;;1.10;;
85622;SDS011;76049;43.076;25.632;2024-03-23T09:40:28;3.70;;;1.50;;
85622;SDS011;76049;43.076;25.632;2024-03-23T09:45:38;3.20;;;1.00;;
85622;SDS011;76049;43.076;25.632;2024-03-23T09:50:45;5.00;;;2.50;;
85622;SDS011;76049;43.076;25.632;2024-03-23T09:55:53;6.60;;;2.10;;
85622;SDS011;76049;43.076;25.632;2024-03-23T10:01:00;3.80;;;1.70;;
85622;SDS011;76049;43.076;25.632;2024-03-23T10:06:14;4.40;;;1.90;;
85622;SDS011;76049;43.076;25.632;2024-03-23T10:11:29;3.80;;;1.90;;
85622;SDS011;76049;43.076;25.632;2024-03-23T10:16:36;3.40;;;1.30;;
85622;SDS011;76049;43.076;25.632;2024-03-23T10:21:45;4.40;;;2.40;;
85622;SDS011;76049;43.076;25.632;2024-03-23T10:26:58;5.20;;;3.00;;
85622;SDS011;76049;43.076;25.632;2024-03-23T10:32:08;5.00;;;1.70;;
85622;SDS011;76049;43.076;25.632;2024-03-23T10:37:17;5.90;;;2.30;;
85622;SDS011;76049;43.076;25.632;2024-03-23T10:42:24;5.10;;;2.10;;
85622;SDS011;76049;43.076;25.632;2024-03-23T10:47:31;6.00;;;2.40;;
85622;SDS011;76049;43.076;25.632;2024-03-23T10:52:42;5.20;;;3.30;;
85622;SDS011;76049;43.076;25.632;2024-03-23T10:57:53;5.50;;;2.80;;
85622;SDS011;76049;43.076;25.632;2024-03-23T11:03:07;6.60;;;2.20;;
85622;SDS011;76049;43.076;25.632;2024-03-23T11:08:37;5.10;;;3.40;;
85622;SDS011;76049;43.076;25.632;2024-03-23T11:13:47;4.80;;;2.60;;
85622;SDS011;76049;43.076;25.632;2024-03-23T11:18:54;5.70;;;1.80;;
85622;SDS011;76049;43.076;25.632;2024-03-23T11:24:40;4.60;;;3.00;;
85622;SDS011;76049;43.076;25.632;2024-03-23T11:29:47;4.40;;;2.80;;
85622;SDS011;76049;43.076;25.632;2024-03-23T11:34:54;6.20;;;2.10;;
85622;SDS011;76049;43.076;25.632;2024-03-23T11:40:00;4.00;;;2.00;;
85622;SDS011;76049;43.076;25.632;2024-03-23T11:45:21;4.40;;;1.60;;
85622;SDS011;76049;43.076;25.632;2024-03-23T11:50:27;5.90;;;2.60;;
85622;SDS011;76049;43.076;25.632;2024-03-23T11:55:45;4.30;;;2.20;;
85622;SDS011;76049;43.076;25.632;2024-03-23T12:00:55;3.60;;;1.20;;
85622;SDS011;76049;43.076;25.632;2024-03-23T12:06:03;5.10;;;1.40;;
85622;SDS011;76049;43.076;25.632;2024-03-23T12:11:12;4.90;;;3.80;;
85622;SDS011;76049;43.076;25.632;2024-03-23T12:16:20;4.70;;;1.20;;
85622;SDS011;76049;43.076;25.632;2024-03-23T12:21:31;3.60;;;1.90;;
85622;SDS011;76049;43.076;25.632;2024-03-23T12:26:38;5.40;;;2.50;;
85622;SDS011;76049;43.076;25.632;2024-03-23T12:31:44;5.80;;;3.40;;
85622;SDS011;76049;43.076;25.632;2024-03-23T12:36:51;4.60;;;2.40;;
85622;SDS011;76049;43.076;25.632;2024-03-23T12:41:58;4.80;;;1.80;;
85622;SDS011;76049;43.076;25.632;2024-03-23T12:47:06;5.00;;;2.10;;
85622;SDS011;76049;43.076;25.632;2024-03-23T12:52:15;4.30;;;2.30;;
85622;SDS011;76049;43.076;25.632;2024-03-23T12:57:21;5.00;;;2.20;;
85622;SDS011;76049;43.076;25.632;2024-03-23T13:02:29;5.30;;;2.90;;
85622;SDS011;76049;43.076;25.632;2024-03-23T13:07:35;4.80;;;2.70;;
85622;SDS011;76049;43.076;25.632;2024-03-23T13:12:43;4.90;;;2.30;;
85622;SDS011;76049;43.076;25.632;2024-03-23T13:17:51;4.70;;;2.00;;
85622;SDS011;76049;43.076;25.632;2024-03-23T13:22:58;6.80;;;2.40;;
85622;SDS011;76049;43.076;25.632;2024-03-23T13:28:05;5.10;;;1.90;;
85622;SDS011;76049;43.076;25.632;2024-03-23T13:33:13;4.80;;;1.60;;
85622;SDS011;76049;43.076;25.632;2024-03-23T13:38:20;6.00;;;2.40;;
85622;SDS011;76049;43.076;25.632;2024-03-23T13:43:27;4.50;;;2.70;;
85622;SDS011;76049;43.076;25.632;2024-03-23T13:48:34;4.80;;;1.80;;
85622;SDS011;76049;43.076;25.632;2024-03-23T13:53:41;5.20;;;2.40;;
85622;SDS011;76049;43.076;25.632;2024-03-23T13:58:48;7.60;;;3.50;;
85622;SDS011;76049;43.076;25.632;2024-03-23T14:03:55;3.90;;;1.50;;
85622;SDS011;76049;43.076;25.632;2024-03-23T14:09:02;4.60;;;2.30;;
85622;SDS011;76049;43.076;25.632;2024-03-23T14:14:12;4.70;;;1.40;;
85622;SDS011;76049;43.076;25.632;2024-03-23T14:19:21;6.10;;;2.10;;
85622;SDS011;76049;43.076;25.632;2024-03-23T14:24:27;5.60;;;2.40;;
85622;SDS011;76049;43.076;25.632;2024-03-23T14:29:34;4.50;;;2.00;;
85622;SDS011;76049;43.076;25.632;2024-03-23T14:34:41;4.40;;;2.00;;
85622;SDS011;76049;43.076;25.632;2024-03-23T14:39:47;5.00;;;2.90;;
85622;SDS011;76049;43.076;25.632;2024-03-23T14:44:54;4.90;;;2.00;;
85622;SDS011;76049;43.076;25.632;2024-03-23T14:50:01;4.30;;;1.90;;
85622;SDS011;76049;43.076;25.632;2024-03-23T14:55:08;6.60;;;2.30;;
85622;SDS011;76049;43.076;25.632;2024-03-23T15:00:16;4.50;;;1.20;;
85622;SDS011;76049;43.076;25.632;2024-03-23T15:05:23;4.80;;;2.60;;
85622;SDS011;76049;43.076;25.632;2024-03-23T15:10:30;4.50;;;1.50;;
85622;SDS011;76049;43.076;25.632;2024-03-23T15:15:39;6.30;;;2.90;;
85622;SDS011;76049;43.076;25.632;2024-03-23T15:20:52;5.60;;;3.10;;
85622;SDS011;76049;43.076;25.632;2024-03-23T15:26:00;4.60;;;2.30;;
85622;SDS011;76049;43.076;25.632;2024-03-23T15:31:07;6.10;;;2.80;;
85622;SDS011;76049;43.076;25.632;2024-03-23T15:36:15;7.10;;;4.50;;
85622;SDS011;76049;43.076;25.632;2024-03-23T15:41:22;4.60;;;1.30;;
85622;SDS011;76049;43.076;25.632;2024-03-23T15:46:29;4.70;;;2.20;;
85622;SDS011;76049;43.076;25.632;2024-03-23T15:51:36;10.70;;;2.60;;
85622;SDS011;76049;43.076;25.632;2024-03-23T15:56:46;7.10;;;2.20;;
85622;SDS011;76049;43.076;25.632;2024-03-23T16:01:53;4.80;;;1.90;;
85622;SDS011;76049;43.076;25.632;2024-03-23T16:06:59;4.20;;;2.10;;
85622;SDS011;76049;43.076;25.632;2024-03-23T16:12:06;5.70;;;2.10;;
85622;SDS011;76049;43.076;25.632;2024-03-23T16:17:13;4.20;;;2.30;;
85622;SDS011;76049;43.076;25.632;2024-03-23T16:22:38;5.00;;;1.70;;
85622;SDS011;76049;43.076;25.632;2024-03-23T16:27:45;5.40;;;1.60;;
85622;SDS011;76049;43.076;25.632;2024-03-23T16:32:52;5.70;;;3.00;;
85622;SDS011;76049;43.076;25.632;2024-03-23T16:37:58;4.10;;;1.70;;
85622;SDS011;76049;43.076;25.632;2024-03-23T16:43:05;4.80;;;1.90;;
85622;SDS011;76049;43.076;25.632;2024-03-23T16:48:12;6.00;;;1.90;;
85622;SDS011;76049;43.076;25.632;2024-03-23T16:53:19;4.80;;;2.00;;
85622;SDS011;76049;43.076;25.632;2024-03-23T16:58:26;3.80;;;2.00;;
85622;SDS011;76049;43.076;25.632;2024-03-23T17:03:34;5.30;;;2.40;;
85622;SDS011;76049;43.076;25.632;2024-03-23T17:08:41;4.20;;;2.60;;
85622;SDS011;76049;43.076;25.632;2024-03-23T17:13:50;4.50;;;1.80;;
85622;SDS011;76049;43.076;25.632;2024-03-23T17:18:58;4.60;;;2.10;;
85622;SDS011;76049;43.076;25.632;2024-03-23T17:24:05;4.20;;;2.60;;
85622;SDS011;76049;43.076;25.632;2024-03-23T17:29:12;4.70;;;2.00;;
85622;SDS011;76049;43.076;25.632;2024-03-23T17:34:23;4.80;;;2.50;;
85622;SDS011;76049;43.076;25.632;2024-03-23T17:39:31;5.10;;;1.80;;
85622;SDS011;76049;43.076;25.632;2024-03-23T17:44:37;7.60;;;3.30;;
85622;SDS011;76049;43.076;25.632;2024-03-23T17:49:44;4.60;;;2.10;;
85622;SDS011;76049;43.076;25.632;2024-03-23T17:54:51;4.60;;;2.10;;
85622;SDS011;76049;43.076;25.632;2024-03-23T17:59:58;6.00;;;3.50;;
85622;SDS011;76049;43.076;25.632;2024-03-23T18:05:05;5.10;;;2.30;;
85622;SDS011;76049;43.076;25.632;2024-03-23T18:10:13;5.10;;;2.50;;
85622;SDS011;76049;43.076;25.632;2024-03-23T18:15:20;6.90;;;2.60;;
85622;SDS011;76049;43.076;25.632;2024-03-23T18:20:27;4.80;;;2.10;;
85622;SDS011;76049;43.076;25.632;2024-03-23T18:25:33;5.30;;;2.30;;
85622;SDS011;76049;43.076;25.632;2024-03-23T18:30:40;5.30;;;1.80;;
85622;SDS011;76049;43.076;25.632;2024-03-23T18:35:50;5.70;;;3.30;;
85622;SDS011;76049;43.076;25.632;2024-03-23T18:40:58;6.80;;;2.40;;
85622;SDS011;76049;43.076;25.632;2024-03-23T18:46:04;4.40;;;2.30;;
85622;SDS011;76049;43.076;25.632;2024-03-23T18:51:11;7.00;;;4.40;;
85622;SDS011;76049;43.076;25.632;2024-03-23T18:56:18;5.40;;;2.80;;
85622;SDS011;76049;43.076;25.632;2024-03-23T19:01:26;5.70;;;2.70;;
85622;SDS011;76049;43.076;25.632;2024-03-23T19:06:33;5.60;;;2.20;;
85622;SDS011;76049;43.076;25.632;2024-03-23T19:11:40;7.00;;;3.30;;
85622;SDS011;76049;43.076;25.632;2024-03-23T19:16:47;4.80;;;2.40;;
85622;SDS011;76049;43.076;25.632;2024-03-23T19:21:58;6.50;;;3.20;;
85622;SDS011;76049;43.076;25.632;2024-03-23T19:27:06;4.10;;;2.00;;
85622;SDS011;76049;43.076;25.632;2024-03-23T19:32:13;4.20;;;2.80;;
85622;SDS011;76049;43.076;25.632;2024-03-23T19:37:21;4.30;;;2.20;;
85622;SDS011;76049;43.076;25.632;2024-03-23T19:42:28;4.50;;;2.40;;
85622;SDS011;76049;43.076;25.632;2024-03-23T19:47:36;5.30;;;1.70;;
85622;SDS011;76049;43.076;25.632;2024-03-23T19:52:43;4.40;;;1.20;;
85622;SDS011;76049;43.076;25.632;2024-03-23T19:57:53;4.90;;;2.30;;
85622;SDS011;76049;43.076;25.632;2024-03-23T20:02:59;5.00;;;3.60;;
85622;SDS011;76049;43.076;25.632;2024-03-23T20:08:10;4.70;;;2.00;;
85622;SDS011;76049;43.076;25.632;2024-03-23T20:13:17;4.80;;;3.80;;
85622;SDS011;76049;43.076;25.632;2024-03-23T20:18:24;5.30;;;4.40;;
85622;SDS011;76049;43.076;25.632;2024-03-23T20:23:32;4.20;;;1.80;;
85622;SDS011;76049;43.076;25.632;2024-03-23T20:28:39;6.30;;;2.80;;
85622;SDS011;76049;43.076;25.632;2024-03-23T20:33:47;4.80;;;2.40;;
85622;SDS011;76049;43.076;25.632;2024-03-23T20:38:53;5.30;;;1.90;;
85622;SDS011;76049;43.076;25.632;2024-03-23T20:44:00;5.00;;;2.40;;
85622;SDS011;76049;43.076;25.632;2024-03-23T20:49:08;4.60;;;2.00;;
85622;SDS011;76049;43.076;25.632;2024-03-23T20:54:19;5.30;;;2.70;;
85622;SDS011;76049;43.076;25.632;2024-03-23T20:59:26;4.80;;;1.90;;
85622;SDS011;76049;43.076;25.632;2024-03-23T21:04:33;5.10;;;3.70;;
85622;SDS011;76049;43.076;25.632;2024-03-23T21:09:40;4.80;;;2.30;;
85622;SDS011;76049;43.076;25.632;2024-03-23T21:14:47;4.60;;;2.30;;
85622;SDS011;76049;43.076;25.632;2024-03-23T21:19:54;4.90;;;1.90;;
85622;SDS011;76049;43.076;25.632;2024-03-23T21:25:01;5.80;;;2.30;;
85622;SDS011;76049;43.076;25.632;2024-03-23T21:30:09;7.10;;;3.70;;
85622;SDS011;76049;43.076;25.632;2024-03-23T21:35:16;6.20;;;3.30;;
85622;SDS011;76049;43.076;25.632;2024-03-23T21:40:24;5.60;;;2.10;;
85622;SDS011;76049;43.076;25.632;2024-03-23T21:45:31;5.90;;;1.50;;
85622;SDS011;76049;43.076;25.632;2024-03-23T21:50:38;6.40;;;1.80;;
85622;SDS011;76049;43.076;25.632;2024-03-23T21:55:51;5.00;;;2.80;;
85622;SDS011;76049;43.076;25.632;2024-03-23T22:00:58;6.20;;;3.30;;
85622;SDS011;76049;43.076;25.632;2024-03-23T22:06:10;5.10;;;3.00;;
85622;SDS011;76049;43.076;25.632;2024-03-23T22:11:17;5.70;;;2.60;;
85622;SDS011;76049;43.076;25.632;2024-03-23T22:16:23;5.50;;;2.60;;
85622;SDS011;76049;43.076;25.632;2024-03-23T22:21:30;6.30;;;2.90;;
85622;SDS011;76049;43.076;25.632;2024-03-23T22:26:37;4.80;;;2.10;;
85622;SDS011;76049;43.076;25.632;2024-03-23T22:31:44;5.60;;;3.40;;
85622;SDS011;76049;43.076;25.632;2024-03-23T22:36:51;5.10;;;2.10;;
85622;SDS011;76049;43.076;25.632;2024-03-23T22:41:58;5.50;;;2.00;;
85622;SDS011;76049;43.076;25.632;2024-03-23T22:47:06;5.20;;;2.10;;
85622;SDS011;76049;43.076;25.632;2024-03-23T22:52:12;4.70;;;2.30;;
85622;SDS011;76049;43.076;25.632;2024-03-23T22:57:19;6.10;;;3.10;;
85622;SDS011;76049;43.076;25.632;2024-03-23T23:02:26;5.40;;;3.20;;
85622;SDS011;76049;43.076;25.632;2024-03-23T23:07:33;6.30;;;2.20;;
85622;SDS011;76049;43.076;25.632;2024-03-23T23:12:40;5.90;;;3.50;;
85622;SDS011;76049;43.076;25.632;2024-03-23T23:17:47;5.20;;;2.90;;
85622;SDS011;76049;43.076;25.632;2024-03-23T23:22:55;7.60;;;4.20;;
85622;SDS011;76049;43.076;25.632;2024-03-23T23:28:01;8.80;;;4.30;;
85622;SDS011;76049;43.076;25.632;2024-03-23T23:33:25;7.80;;;2.90;;
85622;SDS011;76049;43.076;25.632;2024-03-23T23:38:33;12.80;;;5.10;;
85622;SDS011;76049;43.076;25.632;2024-03-23T23:43:41;18.70;;;8.20;;
85622;SDS011;76049;43.076;25.632;2024-03-23T23:48:58;6.50;;;2.50;;
85622;SDS011;76049;43.076;25.632;2024-03-23T23:54:05;5.90;;;2.00;;
85622;SDS011;76049;43.076;25.632;2024-03-23T23:59:13;5.40;;;2.40;;
